Time;durP1;ratioP1;P1;durP2;ratioP2;P2;SDS_P1;SDS_P2;PMS_P1;PMS_P2;Temp;Humidity;BMP_temperature;BMP_pressure;BME280_temperature;BME280_humidity;BME280_pressure;Samples;Min_cycle;Max_cycle;Signal;HPM_P1;HPM_P2
2022/04/21 00:00:07;;;;;;;8.70;4.13;;;;;;;6.10;46.70;101719.53;5028598;28;20063;-76
2022/04/21 00:02:33;;;;;;;7.07;4.60;;;;;;;6.08;46.71;101719.56;5026450;28;20057;-77
2022/04/21 00:04:59;;;;;;;11.02;4.75;;;;;;;6.06;46.69;101718.72;5047511;28;20029;-78
2022/04/21 00:07:25;;;;;;;7.70;4.10;;;;;;;6.03;46.57;101717.88;5043355;28;20765;-78
2022/04/21 00:09:52;;;;;;;6.82;4.93;;;;;;;5.94;47.09;101718.81;5041852;28;20040;-78
2022/04/21 00:12:17;;;;;;;8.70;3.95;;;;;;;6.00;46.46;101717.91;5026640;28;20518;-78
2022/04/21 00:14:43;;;;;;;10.70;4.40;;;;;;;5.99;46.79;101714.44;5050121;28;20040;-78
2022/04/21 00:17:09;;;;;;;6.60;4.03;;;;;;;5.98;46.70;101723.09;5032199;28;20102;-80
2022/04/21 00:19:35;;;;;;;9.20;4.82;;;;;;;5.86;47.32;101720.59;5048789;28;20773;-80
2022/04/21 00:24:45;;;;;;;9.32;4.45;;;;;;;5.95;47.44;101719.66;5064396;28;20082;-78
2022/04/21 00:27:11;;;;;;;7.80;4.10;;;;;;;5.93;47.59;101706.72;5046400;28;20044;-79
2022/04/21 00:29:37;;;;;;;7.68;4.28;;;;;;;6.03;47.36;101716.13;5050229;28;20051;-80
2022/04/21 00:32:03;;;;;;;8.27;4.28;;;;;;;5.99;47.04;101711.84;5055330;28;20507;-76
2022/04/21 00:34:29;;;;;;;6.05;3.88;;;;;;;5.93;47.68;101708.47;5051116;28;20028;-78
2022/04/21 00:36:54;;;;;;;9.95;5.10;;;;;;;5.91;47.64;101710.19;5058889;28;20036;-78
2022/04/21 00:39:20;;;;;;;10.88;4.68;;;;;;;5.97;47.43;101716.19;5060935;28;20025;-79
2022/04/21 00:41:45;;;;;;;10.57;5.28;;;;;;;6.01;47.36;101710.09;5042500;28;20080;-76
2022/04/21 00:44:11;;;;;;;12.25;4.45;;;;;;;5.92;47.89;101710.16;5032172;28;20025;-77
2022/04/21 00:46:38;;;;;;;8.23;4.15;;;;;;;5.89;47.84;101712.78;5049322;28;20061;-79
2022/04/21 00:49:05;;;;;;;11.18;4.57;;;;;;;5.86;47.82;101707.63;5060985;28;20075;-77
2022/04/21 00:51:31;;;;;;;9.00;4.72;;;;;;;5.88;47.69;101717.13;5033578;28;20467;-79
2022/04/21 00:53:58;;;;;;;13.32;5.63;;;;;;;5.74;48.05;101720.66;5043172;28;20084;-79
2022/04/21 00:56:25;;;;;;;8.55;4.35;;;;;;;5.83;47.89;101716.28;5047451;28;20025;-76
2022/04/21 00:58:52;;;;;;;12.18;5.63;;;;;;;5.79;48.32;101713.72;5042380;28;20623;-77
2022/04/21 01:04:03;;;;;;;9.00;4.10;;;;;;;5.74;47.92;101699.91;5045350;28;20037;-79
2022/04/21 01:06:28;;;;;;;11.90;5.20;;;;;;;5.62;48.35;101704.31;5031661;28;20037;-78
2022/04/21 01:08:54;;;;;;;12.77;6.20;;;;;;;5.73;48.00;101713.78;5026298;28;20059;-78
2022/04/21 01:11:21;;;;;;;9.93;5.32;;;;;;;5.69;47.93;101702.53;5031032;28;20090;-79
2022/04/21 01:13:47;;;;;;;9.25;4.60;;;;;;;5.78;47.91;101706.81;5029942;28;20060;-79
2022/04/21 01:16:13;;;;;;;10.68;4.57;;;;;;;5.75;47.87;101696.44;5033133;28;20087;-76
2022/04/21 01:18:41;;;;;;;12.38;5.60;;;;;;;5.71;48.45;101699.94;5044563;28;20041;-79
2022/04/21 01:21:07;;;;;;;9.30;4.55;;;;;;;5.72;48.29;101699.91;5046212;28;20056;-78
2022/04/21 01:23:32;;;;;;;9.32;4.97;;;;;;;5.67;48.38;101694.75;5044642;28;20075;-79
2022/04/21 01:26:01;;;;;;;8.50;4.88;;;;;;;5.83;48.51;101695.53;5028064;28;20033;-79
2022/04/21 01:28:27;;;;;;;10.35;5.45;;;;;;;5.81;48.28;101696.41;5062901;28;20097;-76
2022/04/21 01:30:57;;;;;;;7.78;5.20;;;;;;;5.81;48.41;101697.25;5044267;28;20032;-78
2022/04/21 01:33:24;;;;;;;8.48;4.85;;;;;;;5.87;48.36;101697.22;5045510;28;20106;-79
2022/04/21 01:35:50;;;;;;;11.30;5.35;;;;;;;5.85;48.04;101700.72;5030101;28;20029;-77
2022/04/21 01:41:11;;;;;;;7.03;4.45;;;;;;;5.85;48.17;101692.91;5045447;28;20036;-78
2022/04/21 01:43:38;;;;;;;8.57;4.68;;;;;;;5.76;48.69;101695.59;5031702;28;20037;-79
2022/04/21 01:46:04;;;;;;;8.38;4.15;;;;;;;5.76;48.04;101693.00;5045734;28;20212;-77
2022/04/21 01:48:30;;;;;;;6.57;4.68;;;;;;;5.69;48.53;101701.69;5035693;28;20065;-81
2022/04/21 01:50:56;;;;;;;6.72;4.75;;;;;;;5.66;48.31;101697.38;5030304;28;20036;-79
2022/04/21 01:53:21;;;;;;;10.05;4.75;;;;;;;5.55;48.97;101702.63;5029756;28;20509;-78
2022/04/21 01:55:47;;;;;;;12.43;5.95;;;;;;;5.37;49.53;101700.13;5027913;28;20583;-80
2022/04/21 01:58:12;;;;;;;8.95;4.93;;;;;;;5.22;50.29;101694.16;5032201;28;20052;-78
2022/04/21 02:00:39;;;;;;;10.00;5.13;;;;;;;5.36;49.88;101690.63;5029535;28;20036;-78
2022/04/21 02:03:04;;;;;;;10.95;5.38;;;;;;;5.22;50.95;101693.28;5059674;28;20041;-78
2022/04/21 02:05:30;;;;;;;9.32;5.68;;;;;;;5.44;49.68;101696.66;5027570;28;20017;-79
2022/04/21 02:07:57;;;;;;;11.32;6.65;;;;;;;5.24;50.42;101691.56;5028766;28;20041;-81
2022/04/21 02:10:23;;;;;;;12.48;6.78;;;;;;;5.31;50.06;101688.06;5039604;28;20035;-76
2022/04/21 02:12:48;;;;;;;13.95;7.03;;;;;;;5.28;50.26;101690.69;5047494;28;20049;-79
2022/04/21 02:15:14;;;;;;;10.48;5.88;;;;;;;5.31;50.59;101676.84;5032302;28;20033;-80
2022/04/21 02:17:40;;;;;;;10.07;5.50;;;;;;;5.33;50.15;101688.06;5027420;28;20051;-78
2022/04/21 02:20:10;;;;;;;12.23;5.57;;;;;;;5.25;50.69;101683.75;5040515;28;20064;-77
2022/04/21 02:22:36;;;;;;;9.13;4.22;;;;;;;5.28;50.42;101685.50;5051282;28;20201;-79
2022/04/21 02:25:02;;;;;;;14.55;6.10;;;;;;;5.12;51.29;101687.28;5061859;28;20052;-80
2022/04/21 02:27:28;;;;;;;13.73;5.55;;;;;;;5.23;50.73;101687.22;5044510;28;20048;-77
2022/04/21 02:29:54;;;;;;;7.57;4.45;;;;;;;5.22;51.10;101686.38;5030287;28;20040;-78
2022/04/21 02:32:20;;;;;;;9.55;5.38;;;;;;;5.13;51.24;101689.00;5026449;28;20071;-80
2022/04/21 02:34:46;;;;;;;9.07;4.30;;;;;;;5.06;50.92;101689.91;5045728;28;20028;-80
2022/04/21 02:37:15;;;;;;;5.63;4.03;;;;;;;5.14;50.64;101682.94;5044075;28;20505;-79
2022/04/21 02:39:40;;;;;;;6.50;4.68;;;;;;;5.16;50.18;101690.72;5045682;28;20094;-78
2022/04/21 02:42:06;;;;;;;12.23;5.10;;;;;;;5.10;50.16;101686.44;5027535;28;20491;-79
2022/04/21 02:44:32;;;;;;;8.13;4.78;;;;;;;5.07;50.16;101683.84;5036536;28;20039;-76
2022/04/21 02:46:59;;;;;;;9.02;5.03;;;;;;;5.03;49.96;101679.53;5033214;28;20037;-77
2022/04/21 02:49:26;;;;;;;7.10;4.10;;;;;;;5.00;49.72;101680.41;5032690;28;20029;-80
2022/04/21 02:51:52;;;;;;;5.53;3.80;;;;;;;4.90;49.74;101677.84;5027027;28;20037;-78
2022/04/21 02:57:21;;;;;;;8.30;4.13;;;;;;;4.86;49.60;101668.38;5058880;28;20568;-78
2022/04/21 02:59:53;;;;;;;6.32;3.28;;;;;;;4.82;49.61;101670.09;5045083;28;20063;-78
2022/04/21 03:02:19;;;;;;;6.10;3.72;;;;;;;4.88;49.36;101664.03;5060804;28;20591;-78
2022/04/21 03:04:45;;;;;;;3.60;2.70;;;;;;;4.81;49.31;101669.25;5043114;28;20028;-78
2022/04/21 03:07:13;;;;;;;7.97;3.30;;;;;;;4.83;48.79;101671.81;5025527;28;20040;-80
2022/04/21 03:09:42;;;;;;;5.60;3.50;;;;;;;4.89;49.16;101661.47;5044488;28;20056;-78
2022/04/21 03:12:09;;;;;;;4.68;2.95;;;;;;;4.84;48.91;101669.22;5031746;28;20044;-79
2022/04/21 03:14:39;;;;;;;5.20;3.00;;;;;;;4.71;49.18;101671.84;5044558;28;20375;-80
2022/04/21 03:17:06;;;;;;;4.07;2.22;;;;;;;4.79;48.75;101670.13;5058028;28;20063;-78
2022/04/21 03:19:32;;;;;;;3.97;2.58;;;;;;;4.73;48.33;101673.56;5028011;28;20098;-81
2022/04/21 03:24:43;;;;;;;6.32;3.05;;;;;;;4.55;48.80;101671.03;5059154;28;20029;-78
2022/04/21 03:27:08;;;;;;;5.30;3.47;;;;;;;4.59;49.00;101663.25;5043244;28;20048;-79
2022/04/21 03:29:40;;;;;;;8.35;2.97;;;;;;;4.66;48.59;101661.50;5031061;28;20029;-77
2022/04/21 03:32:09;;;;;;;5.78;3.22;;;;;;;4.64;48.91;101658.06;5039416;28;20041;-79
2022/04/21 03:34:37;;;;;;;3.92;2.60;;;;;;;4.69;48.75;101658.91;5043165;28;20029;-78
2022/04/21 03:37:03;;;;;;;6.50;3.45;;;;;;;4.72;48.54;101664.09;5017175;28;20036;-79
2022/04/21 03:39:28;;;;;;;4.93;2.95;;;;;;;4.66;48.53;101656.34;5030425;28;20032;-79
2022/04/21 03:41:54;;;;;;;8.30;3.90;;;;;;;4.65;48.80;101652.00;5027067;28;20024;-78
2022/04/21 03:44:20;;;;;;;6.05;3.00;;;;;;;4.69;48.39;101655.47;5027246;28;20107;-79
2022/04/21 03:46:46;;;;;;;7.80;3.35;;;;;;;4.60;48.78;101658.94;5043269;28;20105;-79
2022/04/21 03:49:11;;;;;;;6.28;3.33;;;;;;;4.72;47.87;101651.16;5042039;28;20049;-80
2022/04/21 03:51:37;;;;;;;7.93;3.28;;;;;;;4.71;48.19;101656.31;5059497;28;20029;-77
2022/04/21 03:54:04;;;;;;;6.90;3.42;;;;;;;4.59;48.27;101660.66;5054859;28;20047;-77
2022/04/21 03:56:30;;;;;;;9.25;3.80;;;;;;;4.54;48.78;101658.94;5026152;28;20041;-80
2022/04/21 03:58:56;;;;;;;7.20;3.33;;;;;;;4.60;48.15;101654.59;5023593;28;20048;-79
2022/04/21 04:01:22;;;;;;;5.60;3.00;;;;;;;4.55;48.51;101660.69;5027011;28;20661;-78
2022/04/21 04:03:48;;;;;;;6.60;3.55;;;;;;;4.62;48.56;101649.44;5039977;28;20148;-79
2022/04/21 04:11:43;;;;;;;6.13;3.42;;;;;;;4.38;49.18;101658.09;5040142;28;20115;-77
2022/04/21 04:14:09;;;;;;;7.10;3.55;;;;;;;4.42;49.09;101659.84;5044006;28;20057;-78
2022/04/21 04:16:35;;;;;;;6.65;4.55;;;;;;;4.37;49.36;101656.41;5061319;28;20041;-80
2022/04/21 04:19:07;;;;;;;6.20;3.88;;;;;;;4.32;49.60;101664.16;5023579;28;20055;-78
2022/04/21 04:21:33;;;;;;;;;;;;;;;4.29;49.77;101663.31;5060119;28;20060;-78
2022/04/21 04:23:59;;;;;;;7.97;4.05;;;;;;;4.31;49.63;101659.84;5058965;28;19960;-80
2022/04/21 04:26:24;;;;;;;7.78;3.90;;;;;;;4.24;50.29;101657.28;5028738;28;20029;-79
2022/04/21 04:28:50;;;;;;;9.43;4.78;;;;;;;4.17;50.15;101666.78;5043691;28;20039;-76
2022/04/21 04:31:16;;;;;;;9.40;5.38;;;;;;;4.28;50.27;101667.63;5029729;28;20617;-79
2022/04/21 04:33:41;;;;;;;6.57;4.20;;;;;;;4.28;50.24;101657.28;5028138;28;20057;-79
2022/04/21 04:36:10;;;;;;;6.88;3.72;;;;;;;4.32;50.37;101656.41;5058796;28;20112;-80
2022/04/21 04:38:36;;;;;;;7.75;4.45;;;;;;;4.51;50.13;101654.63;5044155;28;20155;-78
2022/04/21 04:42:16;;;;;;;5.15;3.55;;;;;;;4.59;49.55;101659.81;5059449;28;20506;-77
2022/04/21 04:43:47;;;;;;;7.90;4.28;;;;;;;4.59;49.91;101657.22;5059792;28;20437;-79
2022/04/21 04:48:57;;;;;;;8.90;4.80;;;;;;;4.60;50.18;101669.28;5038383;28;20045;-79
2022/04/21 04:51:23;;;;;;;5.72;3.08;;;;;;;4.63;49.92;101669.28;5044864;28;20071;-79
2022/04/21 04:53:49;;;;;;;6.88;3.63;;;;;;;4.66;49.89;101666.69;5026787;28;20411;-79
2022/04/21 04:56:15;;;;;;;5.68;3.53;;;;;;;4.75;49.70;101668.41;5022854;28;20476;-78
2022/04/21 04:58:41;;;;;;;9.18;4.40;;;;;;;4.62;50.14;101663.22;5047446;28;20119;-80
2022/04/21 05:01:06;;;;;;;8.57;4.22;;;;;;;4.70;50.38;101660.66;5041367;28;20336;-78
2022/04/21 05:03:32;;;;;;;8.55;3.92;;;;;;;4.81;49.82;101664.06;5032872;28;20087;-78
2022/04/21 05:05:58;;;;;;;7.85;5.20;;;;;;;4.94;49.89;101656.25;5044248;28;20037;-79
2022/04/21 05:08:23;;;;;;;6.68;4.07;;;;;;;4.98;49.54;101657.97;5045484;28;20037;-78
2022/04/21 05:10:53;;;;;;;6.38;3.25;;;;;;;5.04;50.17;101661.41;5047049;28;20029;-77
2022/04/21 05:13:19;;;;;;;5.88;3.53;;;;;;;5.91;48.99;101656.56;5062456;28;20045;-79
2022/04/21 05:15:44;;;;;;;9.07;3.80;;;;;;;7.64;45.97;101645.09;5029606;28;20047;-78
2022/04/21 05:18:10;;;;;;;11.57;3.83;;;;;;;8.64;42.69;101645.94;5038448;28;20565;-79
2022/04/21 05:21:13;;;;;;;7.68;4.32;;;;;;;10.10;38.81;101646.19;5062963;28;20135;-78
2022/04/21 05:23:40;;;;;;;7.28;2.90;;;;;;;11.70;36.54;101636.34;5061143;28;20102;-79
2022/04/21 05:26:06;;;;;;;5.88;3.38;;;;;;;12.31;33.94;101638.66;5062972;28;20414;-80
2022/04/21 05:28:32;;;;;;;8.48;3.55;;;;;;;13.41;33.54;101641.59;5028793;28;20033;-80
2022/04/21 05:30:58;;;;;;;6.05;2.90;;;;;;;14.48;30.93;101640.72;5030502;28;20091;-77
2022/04/21 05:33:26;;;;;;;4.80;3.25;;;;;;;15.12;30.03;101637.72;5030801;28;20248;-76
2022/04/21 05:35:54;;;;;;;4.68;3.20;;;;;;;15.29;29.75;101641.38;5046438;28;20617;-78
2022/04/21 05:38:21;;;;;;;5.78;3.13;;;;;;;16.16;28.76;101634.44;5048077;28;20033;-78
2022/04/21 05:40:47;;;;;;;6.65;3.00;;;;;;;16.69;26.29;101643.09;5031858;28;20036;-79
2022/04/21 05:43:17;;;;;;;5.47;2.70;;;;;;;17.38;26.76;101638.44;5044390;28;20037;-78
2022/04/21 05:45:42;;;;;;;4.75;2.40;;;;;;;17.75;25.97;101639.00;5044000;28;20078;-77
2022/04/21 05:48:08;;;;;;;3.65;2.28;;;;;;;18.24;24.54;101642.25;5030284;28;20048;-78
2022/04/21 05:50:34;;;;;;;3.35;2.13;;;;;;;18.75;24.01;101636.50;5045642;28;20068;-78
2022/04/21 05:53:04;;;;;;;6.80;2.38;;;;;;;18.97;23.40;101630.72;5028692;28;20625;-80
2022/04/21 05:55:30;;;;;;;4.80;2.65;;;;;;;19.27;23.81;101635.81;5045391;28;20036;-78
2022/04/21 05:57:56;;;;;;;5.10;2.67;;;;;;;19.29;23.09;101631.28;5036186;28;20048;-77
2022/04/21 06:00:22;;;;;;;2.85;2.05;;;;;;;19.58;22.95;101625.91;5032567;28;20078;-76
2022/04/21 06:02:47;;;;;;;4.55;1.88;;;;;;;19.95;21.94;101634.03;5027291;28;20049;-77
2022/04/21 06:05:13;;;;;;;7.82;2.42;;;;;;;20.66;21.38;101623.81;5045361;28;20033;-77
2022/04/21 06:07:39;;;;;;;3.55;1.88;;;;;;;21.57;20.39;101631.41;5041783;28;20048;-78
2022/04/21 06:10:05;;;;;;;4.32;2.05;;;;;;;21.49;20.61;101628.47;5043086;28;20127;-78
2022/04/21 06:12:30;;;;;;;2.90;1.73;;;;;;;21.28;21.44;101626.41;5032055;28;20052;-80
2022/04/21 06:14:56;;;;;;;3.05;2.13;;;;;;;22.25;20.28;101620.94;5042994;28;20044;-78
2022/04/21 06:17:21;;;;;;;2.88;1.75;;;;;;;21.92;20.18;101630.56;5042176;28;20045;-79
2022/04/21 06:19:47;;;;;;;4.28;1.77;;;;;;;22.50;19.90;101630.53;5028684;28;20479;-79
2022/04/21 06:22:13;;;;;;;2.50;2.05;;;;;;;22.14;21.22;101630.63;5027983;28;20044;-79
2022/04/21 06:24:39;;;;;;;4.43;1.90;;;;;;;22.06;20.08;101632.16;5035852;28;20055;-79
2022/04/21 06:27:05;;;;;;;3.33;1.50;;;;;;;22.15;21.05;101626.97;5027848;28;20531;-81
2022/04/21 06:29:31;;;;;;;6.03;1.83;;;;;;;22.57;20.45;101632.56;5028521;28;20029;-81
2022/04/21 06:31:56;;;;;;;2.95;2.13;;;;;;;22.15;20.10;101628.81;5024685;28;20036;-78
2022/04/21 06:34:22;;;;;;;2.70;1.90;;;;;;;21.82;20.72;101629.56;5045259;28;20471;-79
2022/04/21 06:36:49;;;;;;;3.20;1.60;;;;;;;21.11;20.81;101633.00;5024680;28;20043;-80
2022/04/21 06:39:14;;;;;;;3.83;1.35;;;;;;;21.91;20.70;101627.06;5044175;28;20032;-80
2022/04/21 06:41:40;;;;;;;3.80;1.38;;;;;;;22.08;20.16;101636.41;5027286;28;20090;-82
2022/04/21 06:49:35;;;;;;;2.67;1.42;;;;;;;21.83;20.86;101641.91;5059443;28;20071;-81
2022/04/21 06:52:00;;;;;;;6.80;1.83;;;;;;;22.54;20.05;101643.47;5023275;28;20127;-80
2022/04/21 06:54:26;;;;;;;1.88;0.80;;;;;;;22.50;20.56;101644.69;5029007;28;20040;-79
2022/04/21 06:56:51;;;;;;;3.05;1.55;;;;;;;23.57;18.59;101635.16;5025650;28;20096;-80
2022/04/21 06:59:17;;;;;;;2.20;1.08;;;;;;;23.11;18.51;101632.75;5045275;28;20039;-81
2022/04/21 07:01:46;;;;;;;3.45;1.17;;;;;;;22.64;17.68;101632.94;5032894;28;20029;-79
2022/04/21 07:04:13;;;;;;;3.17;1.02;;;;;;;21.86;17.58;101631.03;5058448;28;20528;-78
2022/04/21 07:06:38;;;;;;;2.03;0.75;;;;;;;21.86;18.65;101642.50;5029338;28;20044;-75
2022/04/21 07:09:04;;;;;;;1.23;0.63;;;;;;;21.82;18.28;101634.88;5023957;28;20037;-81
2022/04/21 07:11:30;;;;;;;2.05;0.90;;;;;;;22.72;17.16;101635.03;5026898;28;20036;-81
2022/04/21 07:13:56;;;;;;;1.67;0.65;;;;;;;22.21;16.89;101643.47;5025409;28;20427;-79
2022/04/21 07:16:22;;;;;;;1.58;0.73;;;;;;;21.32;18.52;101646.50;5030178;28;20051;-77
2022/04/21 07:18:56;;;;;;;3.50;1.50;;;;;;;21.24;18.07;101646.22;5059198;28;20060;-77
2022/04/21 07:21:22;;;;;;;6.50;0.90;;;;;;;21.65;17.88;101645.00;5045243;28;20033;-79
2022/04/21 07:23:47;;;;;;;1.92;0.47;;;;;;;21.93;17.52;101650.88;5025938;28;20041;-80
2022/04/21 07:26:13;;;;;;;1.73;0.47;;;;;;;22.56;16.56;101654.84;5037526;28;20227;-79
2022/04/21 07:28:41;;;;;;;1.25;0.68;;;;;;;22.06;17.29;101656.94;5043425;28;20041;-79
2022/04/21 07:31:07;;;;;;;1.73;0.88;;;;;;;21.69;17.59;101656.22;5045037;28;20025;-79
2022/04/21 07:33:32;;;;;;;2.30;0.90;;;;;;;21.61;17.47;101659.47;5027440;28;20048;-79
2022/04/21 07:36:00;;;;;;;1.55;1.33;;;;;;;22.15;16.97;101655.44;5029330;28;20044;-77
2022/04/21 07:38:25;;;;;;;3.40;1.02;;;;;;;22.03;17.48;101659.84;5028254;28;20041;-79
2022/04/21 07:40:53;;;;;;;1.95;0.60;;;;;;;21.93;17.08;101658.84;5032142;28;20037;-80
2022/04/21 07:43:21;;;;;;;1.20;0.60;;;;;;;21.63;17.67;101667.34;5059680;28;20044;-75
2022/04/21 07:45:49;;;;;;;6.00;0.93;;;;;;;21.19;18.00;101659.00;5044493;28;20037;-77
2022/04/21 07:48:15;;;;;;;4.30;0.90;;;;;;;22.49;17.15;101664.28;5043592;28;20631;-79
2022/04/21 07:50:41;;;;;;;9.40;0.90;;;;;;;22.68;16.17;101660.19;5047853;28;20136;-80
2022/04/21 07:53:13;;;;;;;4.53;0.80;;;;;;;22.52;16.06;101660.56;5028819;28;20052;-79
2022/04/21 07:55:43;;;;;;;1.20;0.55;;;;;;;21.83;16.55;101653.41;5028327;28;20119;-79
2022/04/21 07:58:08;;;;;;;1.10;0.43;;;;;;;21.86;16.50;101654.97;5043766;28;20040;-76
2022/04/21 08:00:36;;;;;;;1.10;0.60;;;;;;;20.42;17.65;101653.81;5059553;28;20037;-78
2022/04/21 08:03:03;;;;;;;2.33;0.88;;;;;;;20.22;18.26;101655.22;5026052;28;20526;-76
2022/04/21 08:05:29;;;;;;;2.05;0.70;;;;;;;20.59;18.01;101651.78;5042943;28;20052;-76
2022/04/21 08:07:55;;;;;;;3.78;0.90;;;;;;;21.96;17.33;101648.81;5035650;28;20045;-77
2022/04/21 08:10:22;;;;;;;1.75;0.52;;;;;;;21.13;17.19;101646.16;5044048;28;20044;-77
2022/04/21 08:12:51;;;;;;;1.60;0.73;;;;;;;21.34;17.75;101641.09;5043029;28;20573;-78
2022/04/21 08:15:34;;;;;;;3.13;1.63;;;;;;;21.76;18.02;101647.69;5046839;28;20090;-76
2022/04/21 08:18:02;;;;;;;3.70;1.20;;;;;;;21.68;18.07;101649.22;5027281;28;20041;-80
2022/04/21 08:20:30;;;;;;;2.50;0.80;;;;;;;22.11;17.37;101646.81;5046529;28;20029;-78
2022/04/21 08:22:56;;;;;;;1.77;1.05;;;;;;;23.03;16.09;101648.50;5045286;28;20049;-79
2022/04/21 08:33:37;;;;;;;3.08;1.10;;;;;;;24.79;15.76;101651.44;5049861;28;20052;-77
2022/04/21 08:36:03;;;;;;;5.63;0.82;;;;;;;23.79;16.71;101650.22;5046051;28;20041;-78
2022/04/21 08:38:30;;;;;;;1.48;0.85;;;;;;;23.41;16.85;101654.28;5032222;28;20177;-78
2022/04/21 08:40:58;;;;;;;1.77;0.90;;;;;;;22.06;18.12;101656.94;5048753;28;20045;-76
2022/04/21 08:43:46;;;;;;;1.88;0.90;;;;;;;21.22;18.54;101656.13;5056226;28;20060;-77
2022/04/21 08:46:18;;;;;;;1.98;0.80;;;;;;;21.36;18.78;101650.63;5038481;28;20032;-80
2022/04/21 08:48:47;;;;;;;3.65;0.90;;;;;;;22.03;19.43;101657.19;5064288;28;20051;-77
2022/04/21 08:51:13;;;;;;;6.13;1.20;;;;;;;21.08;18.80;101656.28;5050558;28;20436;-78
2022/04/21 08:53:40;;;;;;;1.95;0.90;;;;;;;20.48;19.31;101641.91;5046155;28;20045;-77
2022/04/21 08:56:06;;;;;;;2.85;1.10;;;;;;;20.86;19.52;101644.53;5038518;28;20032;-77
2022/04/21 08:58:32;;;;;;;1.45;0.63;;;;;;;20.79;19.73;101640.59;5038920;28;20105;-79
2022/04/21 09:00:58;;;;;;;5.32;2.17;;;;;;;20.91;19.42;101639.75;5038191;28;20048;-75
2022/04/21 09:03:24;;;;;;;2.17;1.15;;;;;;;20.64;19.91;101644.34;5024298;28;20049;-80
2022/04/21 09:05:50;;;;;;;4.57;1.67;;;;;;;21.39;19.67;101640.75;5024856;28;20033;-78
2022/04/21 09:08:21;;;;;;;1.67;0.93;;;;;;;20.86;19.87;101639.22;5038778;28;20103;-79
2022/04/21 09:11:01;;;;;;;2.67;0.88;;;;;;;20.05;21.26;101637.75;5023298;28;20568;-78
2022/04/21 09:13:35;;;;;;;8.30;1.40;;;;;;;18.77;21.91;101641.69;5055317;28;20041;-79
2022/04/21 09:16:03;;;;;;;3.47;1.20;;;;;;;18.16;22.23;101638.34;5035246;28;20043;-79
2022/04/21 09:18:41;;;;;;;3.08;0.90;;;;;;;17.78;23.80;101630.88;5045485;28;20067;-79
2022/04/21 09:21:16;;;;;;;6.90;0.90;;;;;;;17.93;23.92;101631.78;5066143;28;20047;-78
2022/04/21 09:23:49;;;;;;;3.55;0.88;;;;;;;16.77;25.31;101618.94;5059671;28;20065;-79
2022/04/21 09:26:21;;;;;;;2.47;1.27;;;;;;;16.30;25.83;101623.16;5038189;28;20044;-78
2022/04/21 09:28:56;;;;;;;2.13;1.13;;;;;;;16.22;25.52;101622.72;5044917;28;20048;-79
2022/04/21 09:31:27;;;;;;;1.75;1.17;;;;;;;16.17;26.11;101614.19;5061751;28;20079;-78
2022/04/21 09:33:54;;;;;;;1.70;1.10;;;;;;;16.35;25.56;101615.00;5028338;28;20045;-80
2022/04/21 09:36:20;;;;;;;2.45;0.95;;;;;;;16.17;26.68;101604.47;5035445;28;20043;-81
2022/04/21 09:38:59;;;;;;;7.22;1.38;;;;;;;16.61;25.87;101614.47;5043516;28;20044;-78
2022/04/21 09:41:28;;;;;;;1.13;0.60;;;;;;;16.52;24.88;101616.75;5030854;28;20407;-79
2022/04/21 09:46:07;;;;;;;10.15;2.10;;;;;;;16.28;26.64;101618.91;5042666;28;20041;-80
2022/04/21 09:46:51;;;;;;;6.90;1.60;;;;;;;16.83;25.28;101616.81;5043446;28;20043;-79
2022/04/21 09:49:36;;;;;;;1.67;0.90;;;;;;;16.96;25.71;101606.44;5026438;28;20550;-81
2022/04/21 09:52:02;;;;;;;3.75;1.55;;;;;;;16.43;25.39;101607.53;5043755;28;22148;-78
2022/04/21 09:54:28;;;;;;;4.10;1.45;;;;;;;16.98;25.37;101606.38;5031507;28;20720;-77
2022/04/21 09:56:56;;;;;;;1.67;0.80;;;;;;;16.60;25.30;101606.66;5028360;28;20091;-79
2022/04/21 09:59:22;;;;;;;3.97;0.88;;;;;;;16.10;24.52;101615.44;5030384;28;20028;-77
2022/04/21 10:01:50;;;;;;;3.13;0.70;;;;;;;16.32;25.28;101618.66;5047449;28;20080;-80
2022/04/21 10:04:19;;;;;;;2.92;0.80;;;;;;;16.60;24.72;101612.78;5034701;28;20044;-78
2022/04/21 10:06:46;;;;;;;3.08;1.10;;;;;;;17.06;24.13;101608.56;5045744;28;20048;-78
2022/04/21 10:09:13;;;;;;;2.10;0.57;;;;;;;16.70;24.33;101607.00;5025299;28;20029;-80
2022/04/21 10:11:44;;;;;;;3.55;1.15;;;;;;;16.63;25.38;101606.47;5046363;28;20033;-80
2022/04/21 10:14:18;;;;;;;1.35;0.80;;;;;;;17.29;25.31;101602.84;5059977;28;20041;-80
2022/04/21 10:16:43;;;;;;;1.70;1.13;;;;;;;17.00;24.38;101605.34;5043101;28;20041;-78
2022/04/21 10:19:11;;;;;;;3.08;1.00;;;;;;;16.98;23.73;101601.09;5044755;28;20514;-79
2022/04/21 10:21:54;;;;;;;4.28;1.25;;;;;;;16.55;25.17;101598.09;5037087;28;20041;-80
2022/04/21 10:24:25;;;;;;;2.28;1.42;;;;;;;16.03;26.67;101600.88;5029022;28;20037;-77
2022/04/21 10:26:51;;;;;;;2.95;2.08;;;;;;;16.05;25.47;101596.38;5045329;28;20093;-79
2022/04/21 10:29:21;;;;;;;4.20;1.50;;;;;;;16.76;24.82;101596.13;5034572;28;20033;-81
2022/04/21 10:31:51;;;;;;;6.10;1.75;;;;;;;16.62;25.31;101583.63;5029853;28;20044;-78
2022/04/21 10:34:37;;;;;;;2.63;1.27;;;;;;;16.94;25.58;101586.34;5059037;28;20488;-79
2022/04/21 10:37:17;;;;;;;5.45;1.98;;;;;;;16.27;24.80;101599.59;5038835;28;20578;-79
2022/04/21 10:40:09;;;;;;;4.55;1.80;;;;;;;15.96;26.70;101590.59;5044736;28;20418;-77
2022/04/21 10:42:55;;;;;;;1.75;1.50;;;;;;;15.33;26.67;101587.66;5041326;28;20791;-78
2022/04/21 10:45:33;;;;;;;1.80;1.10;;;;;;;15.72;26.89;101587.44;5030645;28;20498;-75
2022/04/21 10:48:10;;;;;;;5.40;2.17;;;;;;;15.83;26.93;101583.41;5038530;28;20041;-79
2022/04/21 10:50:39;;;;;;;6.63;1.15;;;;;;;15.42;26.33;101583.72;5042169;28;20123;-81
2022/04/21 10:58:35;;;;;;;2.42;1.00;;;;;;;15.71;26.42;101569.09;5055095;28;20044;-78
2022/04/21 11:01:11;;;;;;;4.35;1.45;;;;;;;15.13;27.24;101564.88;5055856;28;20028;-77
2022/04/21 11:03:38;;;;;;;2.03;1.48;;;;;;;15.07;27.43;101568.66;5037872;28;20064;-78
2022/04/21 11:06:16;;;;;;;2.85;1.67;;;;;;;15.50;27.19;101577.09;5023706;28;20043;-78
2022/04/21 11:08:43;;;;;;;5.38;2.30;;;;;;;15.17;28.18;101577.81;5053837;28;20047;-77
2022/04/21 11:11:09;;;;;;;4.90;1.83;;;;;;;16.21;26.89;101576.16;5025585;28;20035;-77
2022/04/21 11:13:51;;;;;;;3.17;2.10;;;;;;;16.48;26.41;101570.34;5039761;28;20049;-80
2022/04/21 11:16:45;;;;;;;4.93;3.00;;;;;;;17.22;25.22;101573.28;5033117;28;20071;-79
2022/04/21 11:19:29;;;;;;;3.97;2.97;;;;;;;17.26;25.98;101570.47;5055974;28;20037;-78
2022/04/21 11:21:58;;;;;;;4.03;3.08;;;;;;;16.99;25.06;101563.16;5040742;28;20127;-79
2022/04/21 11:24:25;;;;;;;4.13;3.25;;;;;;;16.85;25.79;101569.22;5041229;28;20025;-80
2022/04/21 11:26:58;;;;;;;5.50;3.72;;;;;;;17.05;26.59;101568.09;5041329;28;20055;-79
2022/04/21 11:29:25;;;;;;;5.07;2.70;;;;;;;16.70;26.92;101576.16;5074619;28;20035;-80
2022/04/21 11:32:02;;;;;;;3.60;2.50;;;;;;;16.43;27.54;101567.97;5068853;28;20063;-77
2022/04/21 11:34:27;;;;;;;6.40;2.75;;;;;;;15.74;27.95;101567.13;5058231;28;20037;-77
2022/04/21 11:36:56;;;;;;;4.40;3.55;;;;;;;15.17;29.25;101563.81;5032839;28;20178;-77
2022/04/21 11:39:22;;;;;;;5.80;3.05;;;;;;;16.03;29.36;101561.31;5042474;28;20063;-77
2022/04/21 11:41:52;;;;;;;10.02;4.10;;;;;;;16.25;28.63;101553.97;5020690;28;20045;-78
2022/04/21 11:44:25;;;;;;;7.88;3.65;;;;;;;16.70;27.65;101547.13;5040259;28;20025;-78
2022/04/21 11:46:51;;;;;;;6.20;3.97;;;;;;;16.36;27.05;101553.41;5037227;28;20033;-77
2022/04/21 11:49:17;;;;;;;5.45;2.65;;;;;;;16.33;27.64;101559.72;5023035;28;20079;-78
2022/04/21 11:51:43;;;;;;;12.52;3.80;;;;;;;16.48;26.71;101559.81;5027926;28;20037;-78
2022/04/21 11:54:10;;;;;;;5.97;3.65;;;;;;;16.44;28.53;101547.69;5021141;28;20063;-80
2022/04/21 11:56:36;;;;;;;4.25;3.03;;;;;;;17.38;27.16;101551.25;5038490;28;20029;-79
2022/04/21 11:59:07;;;;;;;6.50;3.65;;;;;;;16.90;27.70;101553.97;5034197;28;20487;-79
2022/04/21 12:07:03;;;;;;;22.15;4.78;;;;;;;16.86;27.38;101543.66;5057239;28;20127;-78
2022/04/21 12:09:41;;;;;;;4.38;3.15;;;;;;;16.94;27.60;101544.09;5029192;28;20115;-79
2022/04/21 12:12:08;;;;;;;4.90;2.88;;;;;;;17.20;27.75;101547.88;5026271;28;20036;-77
2022/04/21 12:14:34;;;;;;;5.53;3.42;;;;;;;17.20;27.71;101543.47;5028936;28;20033;-76
2022/04/21 12:17:01;;;;;;;10.13;4.35;;;;;;;16.98;28.17;101537.72;5030016;28;20037;-79
2022/04/21 12:19:32;;;;;;;6.15;3.88;;;;;;;17.12;26.89;101527.19;5040046;28;20039;-79